LLRB weather

Rambam Heliport
Haifa, Haifa District, Israel

Public forecast

Using degrees Celsius for public forecast. Weather courtesy of forecast.io.

Closest aviation weather report (METAR) to Rambam Heliport

Closest report is Haifa International Airport, 3.3 nm (6.1 km) ESE. Retrieved 2020/02/19 15:50 UTC (35 minutes ago):

LLHA 191550Z VRB02KT 9999 SCT030 15/10 Q1013

Closest aviation forecast (TAF) to Rambam Heliport

Closest forecast is Haifa International Airport, 3.3 nm (6.1 km) ESE. Retrieved 2020/02/19 12:00 UTC (4 hours ago):

TAF LLHA 191105Z 1912/2012 21010KT 9999 SCT045 FM191300 30010KT 9999 SCT035 TEMPO 1913/1918 9000 RA FEW025TCU BKN030 TEMPO 1918/2003 -RA BKN030 TX18/1912Z TN13/2004Z